sensor_id;sensor_type;location;lat;lon;timestamp;P1;durP1;ratioP1;P2;durP2;ratioP2
36283;SDS011;56085;48.910;9.478;2023-05-10T00:01:25;5.93;;;0.80;;
36283;SDS011;56085;48.910;9.478;2023-05-10T00:03:51;1.60;;;0.80;;
36283;SDS011;56085;48.910;9.478;2023-05-10T00:06:16;1.70;;;0.32;;
36283;SDS011;56085;48.910;9.478;2023-05-10T00:08:41;1.00;;;0.47;;
36283;SDS011;56085;48.910;9.478;2023-05-10T00:11:07;0.82;;;0.45;;
36283;SDS011;56085;48.910;9.478;2023-05-10T00:13:32;1.02;;;0.50;;
36283;SDS011;56085;48.910;9.478;2023-05-10T00:15:57;0.65;;;0.43;;
36283;SDS011;56085;48.910;9.478;2023-05-10T00:18:23;0.85;;;0.52;;
36283;SDS011;56085;48.910;9.478;2023-05-10T00:20:48;1.73;;;0.70;;
36283;SDS011;56085;48.910;9.478;2023-05-10T00:23:13;1.63;;;0.70;;
36283;SDS011;56085;48.910;9.478;2023-05-10T00:25:39;1.63;;;0.68;;
36283;SDS011;56085;48.910;9.478;2023-05-10T00:28:04;0.80;;;0.60;;
36283;SDS011;56085;48.910;9.478;2023-05-10T00:30:30;1.35;;;0.50;;
36283;SDS011;56085;48.910;9.478;2023-05-10T00:32:55;0.65;;;0.40;;
36283;SDS011;56085;48.910;9.478;2023-05-10T00:35:20;0.50;;;0.30;;
36283;SDS011;56085;48.910;9.478;2023-05-10T00:37:46;0.52;;;0.50;;
36283;SDS011;56085;48.910;9.478;2023-05-10T00:40:11;1.33;;;0.50;;
36283;SDS011;56085;48.910;9.478;2023-05-10T00:42:37;0.40;;;0.32;;
36283;SDS011;56085;48.910;9.478;2023-05-10T00:45:02;2.40;;;0.80;;
36283;SDS011;56085;48.910;9.478;2023-05-10T00:47:28;1.48;;;0.50;;
36283;SDS011;56085;48.910;9.478;2023-05-10T00:49:53;0.40;;;0.30;;
36283;SDS011;56085;48.910;9.478;2023-05-10T00:52:20;0.10;;;0.10;;
36283;SDS011;56085;48.910;9.478;2023-05-10T00:54:48;0.28;;;0.20;;
36283;SDS011;56085;48.910;9.478;2023-05-10T00:57:14;1.40;;;0.40;;
36283;SDS011;56085;48.910;9.478;2023-05-10T00:59:39;2.65;;;0.17;;
36283;SDS011;56085;48.910;9.478;2023-05-10T01:02:05;1.25;;;0.30;;
36283;SDS011;56085;48.910;9.478;2023-05-10T01:04:31;0.70;;;0.30;;
36283;SDS011;56085;48.910;9.478;2023-05-10T01:06:56;2.33;;;0.40;;
36283;SDS011;56085;48.910;9.478;2023-05-10T01:09:22;0.22;;;0.10;;
36283;SDS011;56085;48.910;9.478;2023-05-10T01:11:47;3.53;;;0.32;;
36283;SDS011;56085;48.910;9.478;2023-05-10T01:14:13;0.30;;;0.20;;
36283;SDS011;56085;48.910;9.478;2023-05-10T01:16:40;0.82;;;0.32;;
36283;SDS011;56085;48.910;9.478;2023-05-10T01:19:10;0.40;;;0.30;;
36283;SDS011;56085;48.910;9.478;2023-05-10T01:21:49;0.30;;;0.20;;
36283;SDS011;56085;48.910;9.478;2023-05-10T01:35:41;0.82;;;0.28;;
36283;SDS011;56085;48.910;9.478;2023-05-10T01:38:09;1.55;;;0.63;;
36283;SDS011;56085;48.910;9.478;2023-05-10T01:44:08;1.27;;;0.65;;
36283;SDS011;56085;48.910;9.478;2023-05-10T01:46:35;3.72;;;0.90;;
36283;SDS011;56085;48.910;9.478;2023-05-10T01:49:03;0.82;;;0.50;;
36283;SDS011;56085;48.910;9.478;2023-05-10T01:51:39;1.70;;;0.77;;
36283;SDS011;56085;48.910;9.478;2023-05-10T01:54:08;0.70;;;0.60;;
36283;SDS011;56085;48.910;9.478;2023-05-10T01:56:37;0.85;;;0.68;;
36283;SDS011;56085;48.910;9.478;2023-05-10T01:59:05;0.88;;;0.63;;
36283;SDS011;56085;48.910;9.478;2023-05-10T02:01:33;1.40;;;0.80;;
36283;SDS011;56085;48.910;9.478;2023-05-10T02:04:02;0.60;;;0.47;;
36283;SDS011;56085;48.910;9.478;2023-05-10T02:06:28;0.77;;;0.60;;
36283;SDS011;56085;48.910;9.478;2023-05-10T02:08:53;1.20;;;0.45;;
36283;SDS011;56085;48.910;9.478;2023-05-10T02:11:20;2.03;;;0.50;;
36283;SDS011;56085;48.910;9.478;2023-05-10T02:13:47;1.50;;;0.70;;
36283;SDS011;56085;48.910;9.478;2023-05-10T02:16:14;1.80;;;0.70;;
36283;SDS011;56085;48.910;9.478;2023-05-10T02:18:42;0.63;;;0.63;;
36283;SDS011;56085;48.910;9.478;2023-05-10T02:21:08;0.63;;;0.63;;
36283;SDS011;56085;48.910;9.478;2023-05-10T02:23:35;1.17;;;0.90;;
36283;SDS011;56085;48.910;9.478;2023-05-10T02:26:01;1.48;;;1.10;;
36283;SDS011;56085;48.910;9.478;2023-05-10T02:28:28;2.33;;;1.13;;
36283;SDS011;56085;48.910;9.478;2023-05-10T02:30:55;1.20;;;0.90;;
36283;SDS011;56085;48.910;9.478;2023-05-10T02:33:21;4.43;;;1.27;;
36283;SDS011;56085;48.910;9.478;2023-05-10T02:35:47;2.65;;;1.20;;
36283;SDS011;56085;48.910;9.478;2023-05-10T02:38:14;6.10;;;1.52;;
36283;SDS011;56085;48.910;9.478;2023-05-10T02:40:41;1.65;;;1.23;;
36283;SDS011;56085;48.910;9.478;2023-05-10T02:43:09;1.13;;;0.95;;
36283;SDS011;56085;48.910;9.478;2023-05-10T02:45:38;1.08;;;0.90;;
36283;SDS011;56085;48.910;9.478;2023-05-10T02:48:05;1.48;;;1.10;;
36283;SDS011;56085;48.910;9.478;2023-05-10T02:50:31;3.10;;;1.42;;
36283;SDS011;56085;48.910;9.478;2023-05-10T02:53:04;2.05;;;0.95;;
36283;SDS011;56085;48.910;9.478;2023-05-10T02:55:37;1.33;;;1.10;;
36283;SDS011;56085;48.910;9.478;2023-05-10T02:58:05;3.60;;;1.13;;
36283;SDS011;56085;48.910;9.478;2023-05-10T03:00:31;0.95;;;0.75;;
36283;SDS011;56085;48.910;9.478;2023-05-10T03:02:57;2.50;;;0.90;;
36283;SDS011;56085;48.910;9.478;2023-05-10T03:05:22;0.90;;;0.70;;
36283;SDS011;56085;48.910;9.478;2023-05-10T03:07:48;1.30;;;1.00;;
36283;SDS011;56085;48.910;9.478;2023-05-10T03:10:13;2.65;;;1.02;;
36283;SDS011;56085;48.910;9.478;2023-05-10T03:12:47;1.52;;;1.10;;
36283;SDS011;56085;48.910;9.478;2023-05-10T03:15:22;2.03;;;1.15;;
36283;SDS011;56085;48.910;9.478;2023-05-10T03:18:06;1.25;;;0.95;;
36283;SDS011;56085;48.910;9.478;2023-05-10T03:20:36;2.28;;;1.00;;
36283;SDS011;56085;48.910;9.478;2023-05-10T03:26:03;1.92;;;1.15;;
36283;SDS011;56085;48.910;9.478;2023-05-10T03:28:29;1.75;;;1.17;;
36283;SDS011;56085;48.910;9.478;2023-05-10T03:30:56;1.05;;;0.80;;
36283;SDS011;56085;48.910;9.478;2023-05-10T03:33:23;1.65;;;1.15;;
36283;SDS011;56085;48.910;9.478;2023-05-10T03:35:48;2.17;;;1.25;;
36283;SDS011;56085;48.910;9.478;2023-05-10T03:38:13;2.95;;;1.65;;
36283;SDS011;56085;48.910;9.478;2023-05-10T03:40:39;3.38;;;1.58;;
36283;SDS011;56085;48.910;9.478;2023-05-10T03:43:04;3.40;;;1.35;;
36283;SDS011;56085;48.910;9.478;2023-05-10T03:45:29;3.08;;;1.50;;
36283;SDS011;56085;48.910;9.478;2023-05-10T03:47:55;2.90;;;1.65;;
36283;SDS011;56085;48.910;9.478;2023-05-10T03:50:22;2.97;;;1.88;;
36283;SDS011;56085;48.910;9.478;2023-05-10T03:52:47;2.65;;;1.60;;
36283;SDS011;56085;48.910;9.478;2023-05-10T03:55:12;4.97;;;1.85;;
36283;SDS011;56085;48.910;9.478;2023-05-10T03:57:38;2.80;;;1.63;;
36283;SDS011;56085;48.910;9.478;2023-05-10T04:00:03;4.47;;;1.50;;
36283;SDS011;56085;48.910;9.478;2023-05-10T04:02:29;2.83;;;1.52;;
36283;SDS011;56085;48.910;9.478;2023-05-10T04:04:55;2.47;;;1.17;;
36283;SDS011;56085;48.910;9.478;2023-05-10T04:07:20;2.45;;;1.52;;
36283;SDS011;56085;48.910;9.478;2023-05-10T04:09:46;2.47;;;1.67;;
36283;SDS011;56085;48.910;9.478;2023-05-10T04:12:11;2.00;;;1.52;;
36283;SDS011;56085;48.910;9.478;2023-05-10T04:14:37;4.90;;;1.80;;
36283;SDS011;56085;48.910;9.478;2023-05-10T04:17:02;2.58;;;1.75;;
36283;SDS011;56085;48.910;9.478;2023-05-10T04:19:30;3.28;;;1.35;;
36283;SDS011;56085;48.910;9.478;2023-05-10T04:21:56;3.15;;;1.90;;
36283;SDS011;56085;48.910;9.478;2023-05-10T04:24:22;2.38;;;1.67;;
36283;SDS011;56085;48.910;9.478;2023-05-10T04:26:47;3.33;;;1.77;;
36283;SDS011;56085;48.910;9.478;2023-05-10T04:29:12;1.98;;;1.50;;
36283;SDS011;56085;48.910;9.478;2023-05-10T04:31:38;3.40;;;1.85;;
36283;SDS011;56085;48.910;9.478;2023-05-10T04:34:03;2.80;;;2.20;;
36283;SDS011;56085;48.910;9.478;2023-05-10T04:36:28;2.45;;;1.73;;
36283;SDS011;56085;48.910;9.478;2023-05-10T04:38:54;2.40;;;1.67;;
36283;SDS011;56085;48.910;9.478;2023-05-10T04:41:19;3.20;;;2.08;;
36283;SDS011;56085;48.910;9.478;2023-05-10T04:43:45;3.25;;;2.13;;
36283;SDS011;56085;48.910;9.478;2023-05-10T04:46:11;2.60;;;1.90;;
36283;SDS011;56085;48.910;9.478;2023-05-10T04:48:36;3.20;;;2.38;;
36283;SDS011;56085;48.910;9.478;2023-05-10T04:51:01;2.60;;;1.77;;
36283;SDS011;56085;48.910;9.478;2023-05-10T04:53:28;3.50;;;2.28;;
36283;SDS011;56085;48.910;9.478;2023-05-10T04:55:54;2.55;;;2.00;;
36283;SDS011;56085;48.910;9.478;2023-05-10T04:58:19;2.08;;;1.88;;
36283;SDS011;56085;48.910;9.478;2023-05-10T05:00:44;3.00;;;2.10;;
36283;SDS011;56085;48.910;9.478;2023-05-10T05:03:10;3.28;;;2.10;;
36283;SDS011;56085;48.910;9.478;2023-05-10T05:05:35;4.70;;;2.15;;
36283;SDS011;56085;48.910;9.478;2023-05-10T05:08:00;4.35;;;2.15;;
36283;SDS011;56085;48.910;9.478;2023-05-10T05:10:26;2.90;;;2.05;;
36283;SDS011;56085;48.910;9.478;2023-05-10T05:12:51;2.70;;;1.98;;
36283;SDS011;56085;48.910;9.478;2023-05-10T05:15:16;3.10;;;2.00;;
36283;SDS011;56085;48.910;9.478;2023-05-10T05:17:42;4.32;;;2.28;;
36283;SDS011;56085;48.910;9.478;2023-05-10T05:20:08;3.05;;;2.10;;
36283;SDS011;56085;48.910;9.478;2023-05-10T05:22:35;4.72;;;3.30;;
36283;SDS011;56085;48.910;9.478;2023-05-10T05:25:01;5.93;;;4.28;;
36283;SDS011;56085;48.910;9.478;2023-05-10T05:27:27;4.05;;;2.97;;
36283;SDS011;56085;48.910;9.478;2023-05-10T05:29:53;3.25;;;2.17;;
36283;SDS011;56085;48.910;9.478;2023-05-10T05:32:18;8.88;;;2.22;;
36283;SDS011;56085;48.910;9.478;2023-05-10T05:34:44;2.97;;;1.73;;
36283;SDS011;56085;48.910;9.478;2023-05-10T05:37:17;3.00;;;2.08;;
36283;SDS011;56085;48.910;9.478;2023-05-10T05:39:44;4.20;;;1.98;;
36283;SDS011;56085;48.910;9.478;2023-05-10T05:42:10;3.65;;;2.10;;
36283;SDS011;56085;48.910;9.478;2023-05-10T05:44:36;5.15;;;2.17;;
36283;SDS011;56085;48.910;9.478;2023-05-10T05:47:01;3.97;;;2.22;;
36283;SDS011;56085;48.910;9.478;2023-05-10T05:49:27;7.43;;;2.20;;
36283;SDS011;56085;48.910;9.478;2023-05-10T05:51:52;2.72;;;1.63;;
36283;SDS011;56085;48.910;9.478;2023-05-10T05:54:18;3.05;;;2.15;;
36283;SDS011;56085;48.910;9.478;2023-05-10T05:56:43;3.00;;;1.90;;
36283;SDS011;56085;48.910;9.478;2023-05-10T05:59:09;3.40;;;1.90;;
36283;SDS011;56085;48.910;9.478;2023-05-10T06:01:34;2.50;;;1.70;;
36283;SDS011;56085;48.910;9.478;2023-05-10T06:04:00;4.65;;;2.47;;
36283;SDS011;56085;48.910;9.478;2023-05-10T06:06:25;3.05;;;2.40;;
36283;SDS011;56085;48.910;9.478;2023-05-10T06:08:51;3.47;;;2.58;;
36283;SDS011;56085;48.910;9.478;2023-05-10T06:11:16;3.85;;;2.17;;
36283;SDS011;56085;48.910;9.478;2023-05-10T06:13:41;6.97;;;3.17;;
36283;SDS011;56085;48.910;9.478;2023-05-10T06:16:07;7.88;;;2.80;;
36283;SDS011;56085;48.910;9.478;2023-05-10T06:18:32;5.88;;;2.97;;
36283;SDS011;56085;48.910;9.478;2023-05-10T06:20:58;3.05;;;2.30;;
36283;SDS011;56085;48.910;9.478;2023-05-10T06:23:23;5.07;;;2.20;;
36283;SDS011;56085;48.910;9.478;2023-05-10T06:25:50;3.00;;;2.22;;
36283;SDS011;56085;48.910;9.478;2023-05-10T06:28:16;5.15;;;2.53;;
36283;SDS011;56085;48.910;9.478;2023-05-10T06:30:41;4.57;;;2.83;;
36283;SDS011;56085;48.910;9.478;2023-05-10T06:33:06;6.55;;;2.75;;
36283;SDS011;56085;48.910;9.478;2023-05-10T06:35:31;4.10;;;2.40;;
36283;SDS011;56085;48.910;9.478;2023-05-10T06:37:58;5.95;;;2.72;;
36283;SDS011;56085;48.910;9.478;2023-05-10T06:40:23;6.07;;;2.40;;
36283;SDS011;56085;48.910;9.478;2023-05-10T06:42:49;3.95;;;2.70;;
36283;SDS011;56085;48.910;9.478;2023-05-10T06:45:14;5.65;;;3.22;;
36283;SDS011;56085;48.910;9.478;2023-05-10T06:47:40;4.57;;;2.58;;
36283;SDS011;56085;48.910;9.478;2023-05-10T06:50:06;5.18;;;2.80;;
36283;SDS011;56085;48.910;9.478;2023-05-10T06:52:36;6.95;;;2.80;;
36283;SDS011;56085;48.910;9.478;2023-05-10T06:55:02;4.68;;;2.83;;
36283;SDS011;56085;48.910;9.478;2023-05-10T06:57:28;3.88;;;2.58;;
36283;SDS011;56085;48.910;9.478;2023-05-10T06:59:53;4.35;;;2.47;;
36283;SDS011;56085;48.910;9.478;2023-05-10T07:02:20;3.60;;;2.53;;
36283;SDS011;56085;48.910;9.478;2023-05-10T07:04:46;6.78;;;2.92;;
36283;SDS011;56085;48.910;9.478;2023-05-10T07:07:12;4.38;;;2.97;;
36283;SDS011;56085;48.910;9.478;2023-05-10T07:09:38;3.97;;;2.65;;
36283;SDS011;56085;48.910;9.478;2023-05-10T07:12:03;4.30;;;2.40;;
36283;SDS011;56085;48.910;9.478;2023-05-10T07:14:29;6.80;;;2.85;;
36283;SDS011;56085;48.910;9.478;2023-05-10T07:16:54;7.50;;;2.53;;
36283;SDS011;56085;48.910;9.478;2023-05-10T07:19:20;4.10;;;2.55;;
36283;SDS011;56085;48.910;9.478;2023-05-10T07:21:45;6.65;;;3.78;;
36283;SDS011;56085;48.910;9.478;2023-05-10T07:24:10;5.80;;;2.53;;
36283;SDS011;56085;48.910;9.478;2023-05-10T07:26:36;4.57;;;2.85;;
36283;SDS011;56085;48.910;9.478;2023-05-10T07:29:01;3.80;;;2.40;;
36283;SDS011;56085;48.910;9.478;2023-05-10T07:31:27;3.22;;;2.30;;
36283;SDS011;56085;48.910;9.478;2023-05-10T07:33:52;3.53;;;2.20;;
36283;SDS011;56085;48.910;9.478;2023-05-10T07:36:18;5.63;;;2.20;;
36283;SDS011;56085;48.910;9.478;2023-05-10T07:38:43;4.50;;;2.28;;
36283;SDS011;56085;48.910;9.478;2023-05-10T07:41:09;5.78;;;2.40;;
36283;SDS011;56085;48.910;9.478;2023-05-10T07:43:34;3.03;;;2.08;;
36283;SDS011;56085;48.910;9.478;2023-05-10T07:45:59;3.10;;;2.13;;
36283;SDS011;56085;48.910;9.478;2023-05-10T07:48:25;3.40;;;1.90;;
36283;SDS011;56085;48.910;9.478;2023-05-10T07:50:51;2.92;;;2.10;;
36283;SDS011;56085;48.910;9.478;2023-05-10T07:53:16;4.65;;;1.75;;
36283;SDS011;56085;48.910;9.478;2023-05-10T07:55:41;3.13;;;1.92;;
36283;SDS011;56085;48.910;9.478;2023-05-10T07:58:06;4.45;;;2.13;;
36283;SDS011;56085;48.910;9.478;2023-05-10T08:00:32;3.97;;;2.10;;
36283;SDS011;56085;48.910;9.478;2023-05-10T08:02:57;3.38;;;1.80;;
36283;SDS011;56085;48.910;9.478;2023-05-10T08:05:22;4.18;;;1.98;;
36283;SDS011;56085;48.910;9.478;2023-05-10T08:07:48;3.83;;;1.80;;
36283;SDS011;56085;48.910;9.478;2023-05-10T08:10:13;2.65;;;2.15;;
36283;SDS011;56085;48.910;9.478;2023-05-10T08:12:38;3.67;;;1.90;;
36283;SDS011;56085;48.910;9.478;2023-05-10T08:15:04;3.45;;;2.20;;
36283;SDS011;56085;48.910;9.478;2023-05-10T08:17:29;3.45;;;2.03;;
36283;SDS011;56085;48.910;9.478;2023-05-10T08:19:55;2.85;;;1.92;;
36283;SDS011;56085;48.910;9.478;2023-05-10T08:22:20;3.58;;;1.90;;
36283;SDS011;56085;48.910;9.478;2023-05-10T08:24:45;5.80;;;2.40;;
36283;SDS011;56085;48.910;9.478;2023-05-10T08:27:11;2.83;;;2.00;;
36283;SDS011;56085;48.910;9.478;2023-05-10T08:29:36;5.28;;;1.98;;
36283;SDS011;56085;48.910;9.478;2023-05-10T08:32:02;6.32;;;2.95;;
36283;SDS011;56085;48.910;9.478;2023-05-10T08:34:28;5.45;;;1.98;;
36283;SDS011;56085;48.910;9.478;2023-05-10T08:36:53;2.88;;;2.20;;
36283;SDS011;56085;48.910;9.478;2023-05-10T08:39:18;2.55;;;1.80;;
36283;SDS011;56085;48.910;9.478;2023-05-10T08:41:44;4.40;;;1.98;;
36283;SDS011;56085;48.910;9.478;2023-05-10T08:44:10;2.85;;;1.70;;
36283;SDS011;56085;48.910;9.478;2023-05-10T08:46:35;2.70;;;1.90;;
36283;SDS011;56085;48.910;9.478;2023-05-10T08:49:05;1.92;;;1.35;;
36283;SDS011;56085;48.910;9.478;2023-05-10T08:51:34;2.25;;;1.20;;
36283;SDS011;56085;48.910;9.478;2023-05-10T08:54:01;2.38;;;1.45;;
36283;SDS011;56085;48.910;9.478;2023-05-10T08:56:28;1.27;;;0.95;;
36283;SDS011;56085;48.910;9.478;2023-05-10T08:58:53;2.65;;;0.80;;
36283;SDS011;56085;48.910;9.478;2023-05-10T09:01:20;1.48;;;0.80;;
36283;SDS011;56085;48.910;9.478;2023-05-10T09:03:46;1.60;;;0.93;;
36283;SDS011;56085;48.910;9.478;2023-05-10T09:06:12;1.50;;;0.65;;
36283;SDS011;56085;48.910;9.478;2023-05-10T09:08:38;0.88;;;0.60;;
36283;SDS011;56085;48.910;9.478;2023-05-10T09:11:05;2.33;;;0.80;;
36283;SDS011;56085;48.910;9.478;2023-05-10T09:13:30;1.00;;;0.38;;
36283;SDS011;56085;48.910;9.478;2023-05-10T09:15:56;1.60;;;0.57;;
36283;SDS011;56085;48.910;9.478;2023-05-10T09:18:22;1.17;;;0.50;;
36283;SDS011;56085;48.910;9.478;2023-05-10T09:20:48;1.23;;;0.50;;
36283;SDS011;56085;48.910;9.478;2023-05-10T09:23:14;2.63;;;0.70;;
36283;SDS011;56085;48.910;9.478;2023-05-10T09:25:40;0.85;;;0.47;;
36283;SDS011;56085;48.910;9.478;2023-05-10T09:28:07;1.35;;;0.47;;
36283;SDS011;56085;48.910;9.478;2023-05-10T09:30:33;1.20;;;0.40;;
36283;SDS011;56085;48.910;9.478;2023-05-10T09:32:59;0.88;;;0.50;;
36283;SDS011;56085;48.910;9.478;2023-05-10T09:35:26;0.77;;;0.40;;
36283;SDS011;56085;48.910;9.478;2023-05-10T09:37:53;0.93;;;0.30;;
36283;SDS011;56085;48.910;9.478;2023-05-10T09:40:21;0.47;;;0.40;;
36283;SDS011;56085;48.910;9.478;2023-05-10T09:42:51;1.05;;;0.30;;
36283;SDS011;56085;48.910;9.478;2023-05-10T09:45:23;1.05;;;0.50;;
36283;SDS011;56085;48.910;9.478;2023-05-10T09:47:51;0.20;;;0.20;;
36283;SDS011;56085;48.910;9.478;2023-05-10T09:50:16;1.80;;;0.32;;
36283;SDS011;56085;48.910;9.478;2023-05-10T09:52:52;0.70;;;0.40;;
36283;SDS011;56085;48.910;9.478;2023-05-10T09:55:25;0.63;;;0.57;;
36283;SDS011;56085;48.910;9.478;2023-05-10T09:58:02;1.67;;;0.50;;
36283;SDS011;56085;48.910;9.478;2023-05-10T10:00:33;1.08;;;0.50;;
36283;SDS011;56085;48.910;9.478;2023-05-10T10:03:00;0.43;;;0.30;;
36283;SDS011;56085;48.910;9.478;2023-05-10T10:05:30;1.08;;;0.57;;
36283;SDS011;56085;48.910;9.478;2023-05-10T10:07:59;0.77;;;0.40;;
36283;SDS011;56085;48.910;9.478;2023-05-10T10:10:26;4.03;;;0.40;;
36283;SDS011;56085;48.910;9.478;2023-05-10T10:12:52;0.57;;;0.43;;
36283;SDS011;56085;48.910;9.478;2023-05-10T10:15:20;1.13;;;0.40;;
36283;SDS011;56085;48.910;9.478;2023-05-10T10:17:46;0.50;;;0.38;;
36283;SDS011;56085;48.910;9.478;2023-05-10T10:20:12;0.77;;;0.50;;
36283;SDS011;56085;48.910;9.478;2023-05-10T10:22:37;0.82;;;0.50;;
36283;SDS011;56085;48.910;9.478;2023-05-10T10:25:03;0.80;;;0.40;;
36283;SDS011;56085;48.910;9.478;2023-05-10T10:30:27;1.42;;;0.60;;
36283;SDS011;56085;48.910;9.478;2023-05-10T10:35:28;1.00;;;0.50;;
36283;SDS011;56085;48.910;9.478;2023-05-10T10:37:54;1.30;;;0.45;;
36283;SDS011;56085;48.910;9.478;2023-05-10T10:40:23;2.15;;;0.50;;
36283;SDS011;56085;48.910;9.478;2023-05-10T10:42:52;2.00;;;0.70;;
36283;SDS011;56085;48.910;9.478;2023-05-10T10:45:18;2.40;;;0.85;;
36283;SDS011;56085;48.910;9.478;2023-05-10T10:47:44;5.00;;;2.75;;
36283;SDS011;56085;48.910;9.478;2023-05-10T10:50:10;3.67;;;2.17;;
36283;SDS011;56085;48.910;9.478;2023-05-10T10:52:38;3.85;;;1.80;;
36283;SDS011;56085;48.910;9.478;2023-05-10T10:55:05;3.63;;;2.00;;
36283;SDS011;56085;48.910;9.478;2023-05-10T11:02:56;0.93;;;0.70;;
36283;SDS011;56085;48.910;9.478;2023-05-10T11:08:17;0.30;;;0.30;;
36283;SDS011;56085;48.910;9.478;2023-05-10T11:11:14;0.77;;;0.50;;
36283;SDS011;56085;48.910;9.478;2023-05-10T11:13:40;0.75;;;0.47;;
36283;SDS011;56085;48.910;9.478;2023-05-10T11:16:17;0.68;;;0.47;;
36283;SDS011;56085;48.910;9.478;2023-05-10T11:21:21;0.68;;;0.50;;
36283;SDS011;56085;48.910;9.478;2023-05-10T11:23:47;1.40;;;0.40;;
36283;SDS011;56085;48.910;9.478;2023-05-10T11:26:13;0.98;;;0.50;;
36283;SDS011;56085;48.910;9.478;2023-05-10T11:28:43;0.75;;;0.43;;
36283;SDS011;56085;48.910;9.478;2023-05-10T11:31:08;3.00;;;0.80;;
36283;SDS011;56085;48.910;9.478;2023-05-10T11:33:43;13.25;;;6.25;;
36283;SDS011;56085;48.910;9.478;2023-05-10T11:36:16;6.22;;;2.13;;
36283;SDS011;56085;48.910;9.478;2023-05-10T11:38:41;3.10;;;1.38;;
36283;SDS011;56085;48.910;9.478;2023-05-10T11:41:10;2.47;;;1.42;;
36283;SDS011;56085;48.910;9.478;2023-05-10T11:43:38;1.83;;;0.73;;
36283;SDS011;56085;48.910;9.478;2023-05-10T11:46:07;0.93;;;0.50;;
36283;SDS011;56085;48.910;9.478;2023-05-10T11:48:35;1.30;;;0.57;;
36283;SDS011;56085;48.910;9.478;2023-05-10T11:51:01;0.35;;;0.35;;
36283;SDS011;56085;48.910;9.478;2023-05-10T11:53:27;5.20;;;0.70;;
36283;SDS011;56085;48.910;9.478;2023-05-10T11:55:52;1.58;;;0.80;;
36283;SDS011;56085;48.910;9.478;2023-05-10T11:58:18;1.63;;;0.93;;
36283;SDS011;56085;48.910;9.478;2023-05-10T12:00:43;2.45;;;0.65;;
36283;SDS011;56085;48.910;9.478;2023-05-10T12:03:11;0.80;;;0.50;;
36283;SDS011;56085;48.910;9.478;2023-05-10T12:05:36;2.83;;;0.43;;
36283;SDS011;56085;48.910;9.478;2023-05-10T12:08:12;2.53;;;0.50;;
36283;SDS011;56085;48.910;9.478;2023-05-10T12:10:38;0.80;;;0.50;;
36283;SDS011;56085;48.910;9.478;2023-05-10T12:13:03;2.17;;;0.65;;
36283;SDS011;56085;48.910;9.478;2023-05-10T12:15:29;0.63;;;0.40;;
36283;SDS011;56085;48.910;9.478;2023-05-10T12:17:54;1.17;;;0.50;;
36283;SDS011;56085;48.910;9.478;2023-05-10T12:20:22;0.50;;;0.40;;
36283;SDS011;56085;48.910;9.478;2023-05-10T12:22:53;2.88;;;0.60;;
36283;SDS011;56085;48.910;9.478;2023-05-10T12:25:20;1.65;;;0.70;;
36283;SDS011;56085;48.910;9.478;2023-05-10T12:30:22;1.15;;;0.70;;
36283;SDS011;56085;48.910;9.478;2023-05-10T12:32:49;4.88;;;0.70;;
36283;SDS011;56085;48.910;9.478;2023-05-10T12:35:15;1.70;;;0.88;;
36283;SDS011;56085;48.910;9.478;2023-05-10T12:37:44;1.95;;;0.80;;
36283;SDS011;56085;48.910;9.478;2023-05-10T12:40:10;2.28;;;0.63;;
36283;SDS011;56085;48.910;9.478;2023-05-10T12:42:36;2.05;;;0.73;;
36283;SDS011;56085;48.910;9.478;2023-05-10T12:45:03;2.33;;;1.00;;
36283;SDS011;56085;48.910;9.478;2023-05-10T12:47:30;2.45;;;0.95;;
36283;SDS011;56085;48.910;9.478;2023-05-10T12:49:56;1.80;;;0.77;;
36283;SDS011;56085;48.910;9.478;2023-05-10T12:52:21;3.50;;;1.13;;
36283;SDS011;56085;48.910;9.478;2023-05-10T12:54:47;3.35;;;0.98;;
36283;SDS011;56085;48.910;9.478;2023-05-10T12:57:12;3.35;;;0.93;;
36283;SDS011;56085;48.910;9.478;2023-05-10T12:59:38;2.65;;;1.33;;
36283;SDS011;56085;48.910;9.478;2023-05-10T13:02:04;1.73;;;0.90;;
36283;SDS011;56085;48.910;9.478;2023-05-10T13:04:29;4.05;;;0.95;;
36283;SDS011;56085;48.910;9.478;2023-05-10T13:06:55;2.40;;;1.00;;
36283;SDS011;56085;48.910;9.478;2023-05-10T13:09:23;2.85;;;0.98;;
36283;SDS011;56085;48.910;9.478;2023-05-10T13:11:49;2.90;;;1.17;;
36283;SDS011;56085;48.910;9.478;2023-05-10T13:14:15;2.22;;;1.15;;
36283;SDS011;56085;48.910;9.478;2023-05-10T13:16:40;2.88;;;0.75;;
36283;SDS011;56085;48.910;9.478;2023-05-10T13:19:05;3.13;;;0.68;;
36283;SDS011;56085;48.910;9.478;2023-05-10T13:21:31;1.15;;;0.65;;
36283;SDS011;56085;48.910;9.478;2023-05-10T13:23:56;2.10;;;0.77;;
36283;SDS011;56085;48.910;9.478;2023-05-10T13:26:21;0.68;;;0.40;;
36283;SDS011;56085;48.910;9.478;2023-05-10T13:28:46;1.70;;;0.90;;
36283;SDS011;56085;48.910;9.478;2023-05-10T13:31:13;1.20;;;0.60;;
36283;SDS011;56085;48.910;9.478;2023-05-10T13:33:38;1.00;;;0.65;;
36283;SDS011;56085;48.910;9.478;2023-05-10T13:36:04;2.13;;;0.70;;
36283;SDS011;56085;48.910;9.478;2023-05-10T13:38:30;5.38;;;0.90;;
36283;SDS011;56085;48.910;9.478;2023-05-10T13:40:55;2.83;;;0.95;;
36283;SDS011;56085;48.910;9.478;2023-05-10T13:43:20;0.45;;;0.40;;
36283;SDS011;56085;48.910;9.478;2023-05-10T13:45:46;1.70;;;0.63;;
36283;SDS011;56085;48.910;9.478;2023-05-10T13:48:11;1.33;;;0.70;;
36283;SDS011;56085;48.910;9.478;2023-05-10T13:50:36;0.85;;;0.60;;
36283;SDS011;56085;48.910;9.478;2023-05-10T13:53:01;2.05;;;0.40;;
36283;SDS011;56085;48.910;9.478;2023-05-10T13:55:27;2.15;;;0.88;;
36283;SDS011;56085;48.910;9.478;2023-05-10T13:57:52;1.67;;;0.68;;
36283;SDS011;56085;48.910;9.478;2023-05-10T14:00:17;0.85;;;0.40;;
36283;SDS011;56085;48.910;9.478;2023-05-10T14:02:43;1.08;;;0.70;;
36283;SDS011;56085;48.910;9.478;2023-05-10T14:05:08;2.35;;;0.55;;
36283;SDS011;56085;48.910;9.478;2023-05-10T14:07:33;3.50;;;0.80;;
36283;SDS011;56085;48.910;9.478;2023-05-10T14:09:59;0.50;;;0.40;;
36283;SDS011;56085;48.910;9.478;2023-05-10T14:12:25;3.42;;;1.38;;
36283;SDS011;56085;48.910;9.478;2023-05-10T14:14:50;1.15;;;0.60;;
36283;SDS011;56085;48.910;9.478;2023-05-10T14:17:15;1.52;;;0.82;;
36283;SDS011;56085;48.910;9.478;2023-05-10T14:19:41;0.95;;;0.57;;
36283;SDS011;56085;48.910;9.478;2023-05-10T14:22:06;0.95;;;0.63;;
36283;SDS011;56085;48.910;9.478;2023-05-10T14:24:31;0.47;;;0.47;;
36283;SDS011;56085;48.910;9.478;2023-05-10T14:26:57;3.00;;;0.60;;
36283;SDS011;56085;48.910;9.478;2023-05-10T14:29:22;0.93;;;0.60;;
36283;SDS011;56085;48.910;9.478;2023-05-10T14:31:48;2.10;;;0.98;;
36283;SDS011;56085;48.910;9.478;2023-05-10T14:34:13;6.32;;;0.93;;
36283;SDS011;56085;48.910;9.478;2023-05-10T14:36:38;2.00;;;0.60;;
36283;SDS011;56085;48.910;9.478;2023-05-10T14:39:04;3.95;;;0.65;;
36283;SDS011;56085;48.910;9.478;2023-05-10T14:41:29;7.47;;;1.25;;
36283;SDS011;56085;48.910;9.478;2023-05-10T14:43:55;2.83;;;0.90;;
36283;SDS011;56085;48.910;9.478;2023-05-10T14:46:20;0.82;;;0.55;;
36283;SDS011;56085;48.910;9.478;2023-05-10T14:48:46;0.80;;;0.52;;
36283;SDS011;56085;48.910;9.478;2023-05-10T14:51:11;2.20;;;0.65;;
36283;SDS011;56085;48.910;9.478;2023-05-10T14:53:36;1.38;;;0.70;;
36283;SDS011;56085;48.910;9.478;2023-05-10T14:56:02;1.27;;;0.60;;
36283;SDS011;56085;48.910;9.478;2023-05-10T14:58:28;0.88;;;0.60;;
36283;SDS011;56085;48.910;9.478;2023-05-10T15:00:53;0.63;;;0.43;;
36283;SDS011;56085;48.910;9.478;2023-05-10T15:03:18;1.63;;;0.70;;
36283;SDS011;56085;48.910;9.478;2023-05-10T15:05:44;1.90;;;1.05;;
36283;SDS011;56085;48.910;9.478;2023-05-10T15:08:09;1.63;;;0.68;;
36283;SDS011;56085;48.910;9.478;2023-05-10T15:10:34;2.47;;;1.10;;
36283;SDS011;56085;48.910;9.478;2023-05-10T15:13:01;1.50;;;0.93;;
36283;SDS011;56085;48.910;9.478;2023-05-10T15:15:28;3.75;;;0.70;;
36283;SDS011;56085;48.910;9.478;2023-05-10T15:17:53;1.38;;;0.70;;
36283;SDS011;56085;48.910;9.478;2023-05-10T15:20:18;1.00;;;0.40;;